Amstetten, Austria

6:06 PM CEST on August 31, 2015 (GMT +0200)
Grein an der Donau | | Change Station
CLOSE
Current Station
Personal Weather Station
Location: Grein, OBERöSTERREICH
Elevation: 794 ft
Nearby Weather Stations

Elev 794 ft 48.23 °N, 14.85 °E | Updated 13 seconds ago

Partly Cloudy
Partly Cloudy
91.4 °F
Feels Like 89 °F
N
0.0
Wind Variable Wind from East
Gusts 0.0 mph

Today
High -- | Low -- °F
--% Chance of Precip.
Yesterday
High -- | Low -- °F
Precip. -- in
6:16 AM 7:44 PM
Waning Gibbous, 95% visible
Pressure 29.86 in
Visibility 6.2 miles
Clouds Few 8000 ft
Heat Index 89 °F
Dew Point 55 °F
Humidity 29%
Rainfall 0.00 in
Snow Depth Not available.
UV 1.0 out of 12
Pollen Not available.
Air Quality Not available.
Flu Activity Not available.
METAR LOWL 311450Z VRB03KT 9999 FEW080 36/09 Q1011 NOSIG
Pressure 29.86 in
Visibility 6.2 miles
Clouds Few 8000 ft
Heat Index 89 °F
Dew Point 55 °F
Humidity 29%
Rainfall 0.00 in
Snow Depth Not available.
UV 1.0 out of 12
Pollen Not available.
Air Quality Not available.
Flu Activity Not available.
METAR LOWL 311450Z VRB03KT 9999 FEW080 36/09 Q1011 NOSIG

10-Day Weather Forecast

×

Almanac

Astronomy

Aug. 31, 2015 Rise Set
Actual Time
Civil Twilight
Nautical Twilight
Astronomical Twilight
Moon
Length of Visible Light
Length of Day
Tomorrow will be .
, % of the Moon is Illuminated

Today's Extremes

Country Highs Country Lows

Community

WunderPhotos

Upload Photos

1,851,298 photos uploaded!

WunderBlogs® & News

Nearby

Air Quality

  Air Quality AQ Index Pollutant
Not available.

Snow Depth

Station Depth Elevation

Earthquake Activity

City Distance Mag. Time & Date
Minimum magnitude displayed is 2.5.

Coastal Water Temperatures

Place Temperature

Stations

Nearby Weather Stations

Station Location Temp. Windchill Dew Point Humidity Wind Precip. Elev Updated Type